Flight Track Log - Related Links

Times and Time Zones

All times are in EDT time to prevent confusion due to time zone crossing. See the SWA1035 flight status page for this flight to view local times or setup timezone preferences in your user account.

Time Position Orientation Groundspeed Altitude Reporting Facility
EDT Latitude Longitude Course Direction KTS MPH feet Rate Location/Type
Fri 04:54:43 PM 35.0117 -106.6586 249° West 174 200 6,900  Level Albuquerque Center
Fri 04:55:45 PM 35.0569 -106.7214 311° West 272 313 8,500 2,000 Climbing Albuquerque Center
Fri 04:56:46 PM 35.1378 -106.7447 347° North 295 339 11,000 3,268 Climbing Albuquerque Center
Fri 04:57:48 PM 35.2403 -106.7850 342° North 324 373 15,200 3,435 Climbing Albuquerque Center
Fri 04:58:50 PM 35.3247 -106.8214 341° North 325 374 18,100 2,710 Climbing Albuquerque Center
Fri 04:59:52 PM 35.4164 -106.8550 343° North 337 388 20,800 2,177 Climbing Albuquerque Center
Fri 05:00:54 PM 35.5189 -106.8761 350° North 369 425 22,600 1,415 Climbing Albuquerque Center
Fri 05:01:55 PM 35.6350 -106.8931 353° North 410 472 23,700 1,707 Climbing Albuquerque Center
Fri 05:02:57 PM 35.7628 -106.9136 353° North 440 506 26,100 2,160 Climbing Albuquerque Center
Fri 05:04:00 PM 35.9014 -106.9364 352° North 448 516 28,200 1,694 Climbing Albuquerque Center
Fri 05:05:01 PM 36.0119 -107.0211 328° Northwest 453 521 29,600 1,415 Climbing Albuquerque Center
Fri 05:06:03 PM 36.1058 -107.1367 315° West 460 529 31,100 1,548 Climbing Albuquerque Center
Fri 05:07:05 PM 36.1956 -107.2458 316° Northwest 470 541 32,800 1,887 Climbing Albuquerque Center
Fri 05:08:07 PM 36.2992 -107.3719 316° Northwest 469 540 35,000 1,951 Climbing Albuquerque Center
Fri 05:09:08 PM 36.3831 -107.4756 315° West 454 522 36,800 1,753 Climbing Albuquerque Center
Fri 05:09:36 PM 36.4253 -107.5261 316° Northwest 450 518 37,600 800 Climbing Denver Center
Fri 05:10:38 PM 36.5206 -107.6450 315° West 440 506 38,000 194 Climbing Denver Center
Fri 05:11:40 PM 36.6047 -107.7475 316° Northwest 444 511 38,000  Level Denver Center
Fri 05:12:42 PM 36.7022 -107.8669 316° Northwest 441 507 38,000  Level Denver Center
Fri 05:13:44 PM 36.7850 -107.9703 315° West 441 507 38,000  Level Denver Center
Fri 05:14:46 PM 36.8669 -108.0733 315° West 438 504 38,000  Level Denver Center
Fri 05:15:47 PM 36.9622 -108.1925 315° West 437 503 38,000  Level Denver Center
Fri 05:16:49 PM 37.0450 -108.2964 315° West 440 506 38,000  Level Denver Center
Fri 05:17:51 PM 37.1408 -108.4172 315° West 439 505 38,000  Level Denver Center
Fri 05:18:53 PM 37.2228 -108.5192 315° West 436 502 38,000  Level Denver Center
Fri 05:19:55 PM 37.3178 -108.6389 315° West 435 501 38,000  Level Denver Center
Fri 05:20:57 PM 37.3992 -108.7414 315° West 434 499 38,000  Level Denver Center
Fri 05:21:59 PM 37.4936 -108.8617 315° West 433 498 38,000  Level Denver Center
Fri 05:23:01 PM 37.5764 -108.9656 315° West 437 503 38,000  Level Denver Center
Fri 05:24:03 PM 37.6708 -109.0883 314° West 438 504 38,000  Level Denver Center
Fri 05:25:05 PM 37.7533 -109.1950 314° West 441 507 38,000  Level Denver Center
Fri 05:26:07 PM 37.8497 -109.3194 314° West 443 510 38,000  Level Denver Center
Fri 05:27:09 PM 37.9331 -109.4272 314° West 446 513 38,000  Level Denver Center
Fri 05:28:11 PM 38.0311 -109.5561 314° West 453 521 38,000  Level Denver Center
Fri 05:29:13 PM 38.1117 -109.6614 314° West 455 524 38,000  Level Denver Center
Fri 05:30:15 PM 38.2094 -109.7881 315° West 451 519 38,000  Level Denver Center
Fri 05:31:17 PM 38.2936 -109.8981 314° West 451 519 38,000  Level Denver Center
Fri 05:32:19 PM 38.3911 -110.0297 313° West 455 524 38,000  Level Denver Center
Fri 05:33:21 PM 38.4767 -110.1419 314° West 459 528 38,000  Level Denver Center
Fri 05:33:53 PM 38.5333 -110.2172 314° West 456 525 38,000  Level Salt Lake Center
Fri 05:34:55 PM 38.6172 -110.3297 314° West 456 525 38,000  Level Salt Lake Center
Fri 05:35:25 PM 38.6572 -110.3825 314° West 453 521 38,000  Level Denver Center
Fri 05:35:57 PM 38.7011 -110.4414 314° West 455 524 38,000  Level Salt Lake Center
Fri 05:36:59 PM 38.7986 -110.5719 314° West 453 521 38,000  Level Salt Lake Center
Fri 05:38:01 PM 38.8831 -110.6861 314° West 457 526 38,000  Level Salt Lake Center
Fri 05:39:03 PM 38.9786 -110.8147 314° West 448 516 38,000  Level Salt Lake Center
Fri 05:40:04 PM 39.0603 -110.9272 313° West 448 516 38,000  Level Salt Lake Center
Fri 05:41:06 PM 39.1569 -111.0592 313° West 453 521 38,000  Level Salt Lake Center
Fri 05:42:08 PM 39.2383 -111.1717 313° West 449 517 38,000  Level Salt Lake Center
Fri 05:43:10 PM 39.3289 -111.2956 313° West 450 518 38,000  Level Salt Lake Center
Fri 05:44:12 PM 39.4144 -111.4144 313° West 451 519 38,000  Level Salt Lake Center
Fri 05:45:14 PM 39.5003 -111.5319 313° West 450 518 38,000  Level Salt Lake Center
Fri 05:46:16 PM 39.5853 -111.6511 313° West 450 518 38,000  Level Salt Lake Center
Fri 05:47:18 PM 39.6706 -111.7692 313° West 448 516 38,000  Level Salt Lake Center
Fri 05:48:20 PM 39.7725 -111.9122 313° West 450 518 38,000  Level Salt Lake Center
Fri 05:49:22 PM 39.8586 -112.0333 313° West 453 521 38,000  Level Salt Lake Center
Fri 05:50:23 PM 39.9436 -112.1531 313° West 450 518 38,000  Level Salt Lake Center
Fri 05:51:25 PM 40.0283 -112.2750 312° West 451 519 38,000  Level Salt Lake Center
Fri 05:52:27 PM 40.1139 -112.3958 313° West 453 521 38,000  Level Salt Lake Center
Fri 05:53:29 PM 40.1972 -112.5169 312° West 448 516 38,000  Level Salt Lake Center
Fri 05:54:31 PM 40.2811 -112.6358 313° West 444 511 38,000 -12,387 Level Salt Lake Center
Fri 05:55:33 PM 40.3833 -112.7828 312° West 451 519 12,400  Descending Salt Lake Center
Fri 05:57:36 PM 40.5503 -113.0275 312° West 449 517 38,000 8,303 Climbing Salt Lake Center
Fri 05:58:38 PM 40.6336 -113.1494 312° West 448 516 38,000 387 Level Salt Lake Center
Fri 05:59:40 PM 40.7175 -113.2722 312° West 450 518 38,800 829 Climbing Salt Lake Center
Fri 06:00:41 PM 40.8014 -113.3933 312° West 449 517 39,700 585 Climbing Salt Lake Center
Fri 06:01:43 PM 40.8836 -113.5175 311° West 450 518 40,000 145 Climbing Salt Lake Center
Fri 06:02:45 PM 40.9683 -113.6422 312° West 454 522 40,000  Level Salt Lake Center
Fri 06:03:47 PM 41.0664 -113.7914 311° West 450 518 40,000  Level Salt Lake Center
Fri 06:04:48 PM 41.1486 -113.9142 312° West 448 516 40,000  Level Salt Lake Center
Fri 06:05:50 PM 41.2314 -114.0400 311° West 450 518 40,000  Level Salt Lake Center
Fri 06:06:52 PM 41.3128 -114.1633 311° West 448 516 40,000  Level Salt Lake Center
Fri 06:07:53 PM 41.3950 -114.2886 311° West 448 516 40,000  Level Salt Lake Center
Fri 06:08:55 PM 41.4783 -114.4139 312° West 449 517 40,000  Level Salt Lake Center
Fri 06:09:57 PM 41.5608 -114.5400 311° West 451 519 40,000  Level Salt Lake Center
Fri 06:10:59 PM 41.6581 -114.6897 311° West 452 520 40,000  Level Salt Lake Center
Fri 06:12:00 PM 41.7364 -114.8119 311° West 453 521 40,000  Level Salt Lake Center
Fri 06:13:02 PM 41.8275 -114.9531 311° West 449 517 40,000  Level Salt Lake Center
Fri 06:14:04 PM 41.9067 -115.0758 311° West 448 516 40,000  Level Salt Lake Center
Fri 06:15:06 PM 41.9842 -115.1972 311° West 444 511 40,000  Level Salt Lake Center
Fri 06:16:07 PM 42.0750 -115.3394 311° West 449 517 40,000  Level Salt Lake Center
Fri 06:17:09 PM 42.1503 -115.4617 310° West 451 519 40,000  Level Salt Lake Center
Fri 06:18:11 PM 42.2411 -115.6042 311° West 448 516 40,000  Level Salt Lake Center
Fri 06:19:12 PM 42.3178 -115.7269 310° West 447 514 40,000  Level Salt Lake Center
Fri 06:20:14 PM 42.4083 -115.8717 310° West 449 517 40,000  Level Salt Lake Center
Fri 06:21:16 PM 42.4853 -115.9961 310° West 451 519 40,000  Level Salt Lake Center
Fri 06:22:17 PM 42.5744 -116.1414 310° West 448 516 40,000  Level Salt Lake Center
Fri 06:23:19 PM 42.6514 -116.2656 310° West 449 517 40,000  Level Salt Lake Center
Fri 06:24:21 PM 42.7278 -116.3900 310° West 447 514 40,000  Level Salt Lake Center
Fri 06:25:22 PM 42.8161 -116.5358 310° West 447 514 40,000  Level Salt Lake Center
Fri 06:26:24 PM 42.8925 -116.6611 310° West 448 516 40,000  Level Salt Lake Center
Fri 06:27:26 PM 42.9811 -116.8075 310° West 449 517 40,000  Level Salt Lake Center
Fri 06:28:27 PM 43.0572 -116.9344 309° West 448 516 40,000  Level Salt Lake Center
Fri 06:29:29 PM 43.1325 -117.0611 309° West 448 516 40,000  Level Salt Lake Center
Fri 06:30:31 PM 43.2211 -117.2094 309° West 449 517 40,000  Level Salt Lake Center
Fri 06:31:32 PM 43.2964 -117.3367 309° West 450 518 40,000  Level Salt Lake Center
Fri 06:32:34 PM 43.3833 -117.4839 309° West 445 512 40,000  Level Salt Lake Center
Fri 06:33:36 PM 43.4572 -117.6097 309° West 442 509 40,000  Level Salt Lake Center
Fri 06:34:37 PM 43.5439 -117.7553 309° West 438 504 40,000  Level Salt Lake Center
Fri 06:35:39 PM 43.6169 -117.8822 309° West 441 507 40,000  Level Salt Lake Center
Fri 06:36:40 PM 43.6900 -118.0075 309° West 438 504 40,000  Level Salt Lake Center
Fri 06:37:42 PM 43.7756 -118.1564 309° West 439 505 40,000  Level Salt Lake Center
Fri 06:38:43 PM 43.8500 -118.2842 309° West 444 511 40,000  Level Salt Lake Center
Fri 06:39:45 PM 43.9292 -118.4233 308° West 439 505 40,000  Level Salt Lake Center
Fri 06:40:47 PM 44.0058 -118.5583 308° West 443 510 40,000  Level Salt Lake Center
Fri 06:41:48 PM 44.0819 -118.6933 308° West 444 511 40,000  Level Salt Lake Center
Fri 06:42:19 PM 44.1272 -118.7731 308° West 442 509 40,000  Level Seattle Center
Fri 06:43:20 PM 44.2028 -118.9069 308° West 442 509 40,000  Level Seattle Center
Fri 06:44:21 PM 44.2781 -119.0397 308° West 441 507 40,000  Level Seattle Center
Fri 06:45:22 PM 44.3517 -119.1728 308° West 436 502 40,000  Level Seattle Center
Fri 06:46:23 PM 44.4261 -119.3056 308° West 434 499 40,000  Level Seattle Center
Fri 06:47:24 PM 44.5000 -119.4406 308° West 437 503 40,000  Level Seattle Center
Fri 06:48:24 PM 44.5756 -119.5756 308° West 440 506 40,000  Level Seattle Center
Fri 06:49:25 PM 44.6489 -119.7106 307° West 436 502 40,000  Level Seattle Center
Fri 06:50:26 PM 44.7225 -119.8481 307° West 438 504 40,000  Level Seattle Center
Fri 06:51:27 PM 44.7964 -119.9872 307° West 440 506 40,000 -98 Level Seattle Center
Fri 06:52:28 PM 44.8706 -120.1281 307° West 439 505 39,800 -1,475 Descending Seattle Center
Fri 06:53:29 PM 44.9442 -120.2681 307° West 437 503 37,000 -2,902 Descending Seattle Center
Fri 06:54:30 PM 45.0167 -120.4069 306° West 436 502 33,900 -2,826 Descending Seattle Center
Fri 06:55:30 PM 45.0894 -120.5456 307° West 437 503 31,300 -2,380 Descending Seattle Center
Fri 06:56:31 PM 45.1597 -120.6797 307° West 429 494 29,100 -2,016 Descending Seattle Center
Fri 06:57:32 PM 45.2272 -120.8094 306° West 414 476 27,200 -2,213 Descending Seattle Center
Fri 06:58:33 PM 45.2925 -120.9356 306° West 403 464 24,600 -2,311 Descending Seattle Center
Fri 06:59:34 PM 45.3556 -121.0597 306° West 392 451 22,500 -2,262 Descending Seattle Center
Fri 07:00:35 PM 45.4250 -121.2042 304° West 375 432 20,000 -2,410 Descending Seattle Center
Fri 07:01:36 PM 45.4436 -121.3428 281° West 363 418 17,600 -2,236 Descending Seattle Center
Fri 07:02:25 PM 45.4600 -121.4583 281° West 347 399 15,900 -2,017 Descending Seattle Center
Fri 07:03:32 PM 45.4775 -121.6025 280° West 339 390 13,700 -1,940 Descending Seattle Center
Fri 07:04:38 PM 45.4928 -121.7394 279° West 333 383 11,600 -1,409 Descending Seattle Center
Fri 07:05:27 PM 45.4972 -121.8414 274° West 298 343 11,000 -1,138 Descending Seattle Center
Fri 07:06:34 PM 45.5022 -121.9689 273° West 275 316 9,400 -1,299 Descending Seattle Center
Fri 07:07:41 PM 45.5044 -122.0711 272° West 268 308 8,100 -1,240 Descending Seattle Center
Fri 07:08:35 PM 45.5061 -122.1772 271° West 260 299 6,900 -934 Descending Seattle Center
Fri 07:09:43 PM 45.5106 -122.2706 274° West 251 289 6,200 -893 Descending Seattle Center
Fri 07:10:36 PM 45.5108 -122.3481 270° West 190 219 5,100 -1,158 Descending Seattle Center
Fri 07:11:37 PM 45.5231 -122.4078 286° West 144 166 4,000 -1,475 Descending Seattle Center
Fri 07:12:38 PM 45.5400 -122.4594 295° West 135 155 2,100 -1,438 Descending Seattle Center
Fri 07:13:38 PM 45.5572 -122.5017 300° West 123 142 1,100 -793 Descending Seattle Center
Fri 07:14:39 PM 45.5744 -122.5442 300° West 123 142 500 -590 Descending Seattle Center
Fri 07:16:00 PM 45.5833 -122.5833 282° West  Level FlightAware Approximate

Login

Don't have an account? Register now (free) for customized features, flight alerts, and more!